KISP

Long Island Mac Arthur Airport

New York, New York, USA
METAR KISP 221356Z 26009KT 10SM FEW050 BKN120 07/01 A3025 RMK AO2 SLP244 T00720006
Observed Flight Rules
Oct-22 @ 13:56 UTC (25 minutes ago) Visual Flight Rules
Wind Visibility Clouds
260° at 9 knots 10 miles
  • Few at 5,000' AGL
  • Broken at 12,000' AGL
Temperatures Readings
Current 7°C / 45°F
Dewpoint 1°C / 34°F
Humidity 66%
Altimeter 30.25" Hg
Pressure 1024.4 hPa
Elevation 43
METAR KISP 221356Z 26009KT 10SM FEW050 BKN120 07/01 A3025 RMK AO2 SLP244 T00720006
Observed Flight Rules
Oct-22 @ 13:56 UTC
(25 minutes ago)
VFR
Wind Visibility
260° at 9 knots 10 miles
Clouds
  • Few at 5,000' AGL
  • Broken at 12,000' AGL
Temperature Dewpoint
7°C / 45°F 1°C / 34°F
Humidity Altimeter Pressure
66% 30.25" Hg 1024.4 hPa